sensor_id;sensor_type;location;lat;lon;timestamp;P1;durP1;ratioP1;P2;durP2;ratioP2
41514;SDS011;27247;48.020;16.720;2024-01-11T00:03:20;46.63;;;20.10;;
41514;SDS011;27247;48.020;16.720;2024-01-11T00:07:30;50.45;;;20.77;;
41514;SDS011;27247;48.020;16.720;2024-01-11T00:11:41;51.78;;;20.30;;
41514;SDS011;27247;48.020;16.720;2024-01-11T00:15:51;45.72;;;20.15;;
41514;SDS011;27247;48.020;16.720;2024-01-11T00:20:02;50.45;;;20.88;;
41514;SDS011;27247;48.020;16.720;2024-01-11T00:24:12;50.17;;;19.98;;
41514;SDS011;27247;48.020;16.720;2024-01-11T00:28:23;49.77;;;20.47;;
41514;SDS011;27247;48.020;16.720;2024-01-11T00:32:33;50.67;;;18.57;;
41514;SDS011;27247;48.020;16.720;2024-01-11T00:36:43;44.78;;;20.42;;
41514;SDS011;27247;48.020;16.720;2024-01-11T00:40:53;50.93;;;20.73;;
41514;SDS011;27247;48.020;16.720;2024-01-11T00:45:04;51.10;;;21.77;;
41514;SDS011;27247;48.020;16.720;2024-01-11T00:49:14;49.63;;;21.10;;
41514;SDS011;27247;48.020;16.720;2024-01-11T00:53:25;50.17;;;20.27;;
41514;SDS011;27247;48.020;16.720;2024-01-11T00:57:40;56.08;;;23.40;;
41514;SDS011;27247;48.020;16.720;2024-01-11T01:01:50;56.87;;;23.07;;
41514;SDS011;27247;48.020;16.720;2024-01-11T01:06:01;57.00;;;23.60;;
41514;SDS011;27247;48.020;16.720;2024-01-11T01:10:12;53.75;;;22.73;;
41514;SDS011;27247;48.020;16.720;2024-01-11T01:14:22;55.20;;;23.25;;
41514;SDS011;27247;48.020;16.720;2024-01-11T01:18:33;57.10;;;23.73;;
41514;SDS011;27247;48.020;16.720;2024-01-11T01:22:43;66.70;;;27.73;;
41514;SDS011;27247;48.020;16.720;2024-01-11T01:26:53;71.63;;;28.63;;
41514;SDS011;27247;48.020;16.720;2024-01-11T01:31:04;65.00;;;27.33;;
41514;SDS011;27247;48.020;16.720;2024-01-11T01:35:14;66.37;;;27.50;;
41514;SDS011;27247;48.020;16.720;2024-01-11T01:39:24;69.82;;;28.92;;
41514;SDS011;27247;48.020;16.720;2024-01-11T01:43:35;63.73;;;28.37;;
41514;SDS011;27247;48.020;16.720;2024-01-11T01:47:45;69.63;;;30.55;;
41514;SDS011;27247;48.020;16.720;2024-01-11T01:51:55;76.82;;;30.33;;
41514;SDS011;27247;48.020;16.720;2024-01-11T01:56:06;79.63;;;30.02;;
41514;SDS011;27247;48.020;16.720;2024-01-11T02:00:18;72.38;;;30.55;;
41514;SDS011;27247;48.020;16.720;2024-01-11T02:04:29;78.40;;;31.05;;
41514;SDS011;27247;48.020;16.720;2024-01-11T02:08:41;86.35;;;35.22;;
41514;SDS011;27247;48.020;16.720;2024-01-11T02:12:52;73.40;;;31.77;;
41514;SDS011;27247;48.020;16.720;2024-01-11T02:17:03;83.90;;;33.95;;
41514;SDS011;27247;48.020;16.720;2024-01-11T02:21:14;84.00;;;32.47;;
41514;SDS011;27247;48.020;16.720;2024-01-11T02:25:25;80.15;;;33.10;;
41514;SDS011;27247;48.020;16.720;2024-01-11T02:29:35;80.70;;;32.50;;
41514;SDS011;27247;48.020;16.720;2024-01-11T02:33:46;80.70;;;30.55;;
41514;SDS011;27247;48.020;16.720;2024-01-11T02:37:57;76.70;;;30.55;;
41514;SDS011;27247;48.020;16.720;2024-01-11T02:42:09;76.63;;;33.13;;
41514;SDS011;27247;48.020;16.720;2024-01-11T02:46:19;85.22;;;33.13;;
41514;SDS011;27247;48.020;16.720;2024-01-11T02:50:30;75.20;;;30.83;;
41514;SDS011;27247;48.020;16.720;2024-01-11T02:54:41;78.07;;;31.58;;
41514;SDS011;27247;48.020;16.720;2024-01-11T02:58:51;78.37;;;31.13;;
41514;SDS011;27247;48.020;16.720;2024-01-11T03:03:01;69.80;;;29.90;;
41514;SDS011;27247;48.020;16.720;2024-01-11T03:07:12;74.05;;;28.98;;
41514;SDS011;27247;48.020;16.720;2024-01-11T03:11:22;66.70;;;28.88;;
41514;SDS011;27247;48.020;16.720;2024-01-11T03:15:32;65.53;;;27.42;;
41514;SDS011;27247;48.020;16.720;2024-01-11T03:19:43;64.30;;;27.42;;
41514;SDS011;27247;48.020;16.720;2024-01-11T03:23:53;77.30;;;32.53;;
41514;SDS011;27247;48.020;16.720;2024-01-11T03:28:04;77.40;;;33.28;;
41514;SDS011;27247;48.020;16.720;2024-01-11T03:32:15;76.43;;;32.72;;
41514;SDS011;27247;48.020;16.720;2024-01-11T03:36:25;77.00;;;33.22;;
41514;SDS011;27247;48.020;16.720;2024-01-11T03:40:36;80.13;;;31.67;;
41514;SDS011;27247;48.020;16.720;2024-01-11T03:44:46;74.93;;;33.42;;
41514;SDS011;27247;48.020;16.720;2024-01-11T03:48:56;85.77;;;34.20;;
41514;SDS011;27247;48.020;16.720;2024-01-11T03:53:07;85.72;;;34.17;;
41514;SDS011;27247;48.020;16.720;2024-01-11T03:57:18;77.10;;;32.45;;
41514;SDS011;27247;48.020;16.720;2024-01-11T04:01:28;80.53;;;33.30;;
41514;SDS011;27247;48.020;16.720;2024-01-11T04:05:38;88.15;;;32.05;;
41514;SDS011;27247;48.020;16.720;2024-01-11T04:09:49;81.37;;;31.47;;
41514;SDS011;27247;48.020;16.720;2024-01-11T04:13:59;83.57;;;32.83;;
41514;SDS011;27247;48.020;16.720;2024-01-11T04:18:09;73.00;;;32.43;;
41514;SDS011;27247;48.020;16.720;2024-01-11T04:22:19;72.40;;;30.45;;
41514;SDS011;27247;48.020;16.720;2024-01-11T04:26:30;85.03;;;33.60;;
41514;SDS011;27247;48.020;16.720;2024-01-11T04:30:40;81.85;;;31.80;;
41514;SDS011;27247;48.020;16.720;2024-01-11T04:34:51;79.13;;;30.63;;
41514;SDS011;27247;48.020;16.720;2024-01-11T04:39:01;72.55;;;30.40;;
41514;SDS011;27247;48.020;16.720;2024-01-11T04:43:11;84.10;;;34.10;;
41514;SDS011;27247;48.020;16.720;2024-01-11T04:47:22;75.95;;;29.95;;
41514;SDS011;27247;48.020;16.720;2024-01-11T04:51:32;75.07;;;32.70;;
41514;SDS011;27247;48.020;16.720;2024-01-11T04:55:42;75.63;;;31.63;;
41514;SDS011;27247;48.020;16.720;2024-01-11T04:59:52;81.60;;;32.93;;
41514;SDS011;27247;48.020;16.720;2024-01-11T05:04:03;81.88;;;31.95;;
41514;SDS011;27247;48.020;16.720;2024-01-11T05:08:13;81.70;;;33.95;;
41514;SDS011;27247;48.020;16.720;2024-01-11T05:12:24;73.43;;;31.65;;
41514;SDS011;27247;48.020;16.720;2024-01-11T05:16:34;90.95;;;32.40;;
41514;SDS011;27247;48.020;16.720;2024-01-11T05:20:45;75.50;;;32.30;;
41514;SDS011;27247;48.020;16.720;2024-01-11T05:24:56;74.23;;;31.37;;
41514;SDS011;27247;48.020;16.720;2024-01-11T05:29:06;88.77;;;34.33;;
41514;SDS011;27247;48.020;16.720;2024-01-11T05:33:16;76.50;;;32.47;;
41514;SDS011;27247;48.020;16.720;2024-01-11T05:37:27;74.17;;;32.10;;
41514;SDS011;27247;48.020;16.720;2024-01-11T05:41:37;77.60;;;30.97;;
41514;SDS011;27247;48.020;16.720;2024-01-11T05:45:47;88.43;;;30.88;;
41514;SDS011;27247;48.020;16.720;2024-01-11T05:49:57;71.13;;;30.60;;
41514;SDS011;27247;48.020;16.720;2024-01-11T05:54:08;67.97;;;29.13;;
41514;SDS011;27247;48.020;16.720;2024-01-11T05:58:18;74.10;;;29.63;;
41514;SDS011;27247;48.020;16.720;2024-01-11T06:02:29;74.88;;;29.45;;
41514;SDS011;27247;48.020;16.720;2024-01-11T06:06:41;62.60;;;27.65;;
41514;SDS011;27247;48.020;16.720;2024-01-11T06:10:52;64.93;;;26.33;;
41514;SDS011;27247;48.020;16.720;2024-01-11T06:15:02;69.27;;;26.13;;
41514;SDS011;27247;48.020;16.720;2024-01-11T06:19:13;68.10;;;26.83;;
41514;SDS011;27247;48.020;16.720;2024-01-11T06:23:24;72.45;;;27.73;;
41514;SDS011;27247;48.020;16.720;2024-01-11T06:27:35;70.45;;;26.35;;
41514;SDS011;27247;48.020;16.720;2024-01-11T06:31:46;62.65;;;25.38;;
41514;SDS011;27247;48.020;16.720;2024-01-11T06:35:56;65.78;;;25.00;;
41514;SDS011;27247;48.020;16.720;2024-01-11T06:40:06;61.10;;;25.38;;
41514;SDS011;27247;48.020;16.720;2024-01-11T06:44:18;59.75;;;24.73;;
41514;SDS011;27247;48.020;16.720;2024-01-11T06:48:28;65.82;;;27.17;;
41514;SDS011;27247;48.020;16.720;2024-01-11T06:52:39;247.20;;;70.57;;
41514;SDS011;27247;48.020;16.720;2024-01-11T06:56:49;102.27;;;40.60;;
41514;SDS011;27247;48.020;16.720;2024-01-11T07:00:59;92.30;;;35.37;;
41514;SDS011;27247;48.020;16.720;2024-01-11T07:05:09;79.67;;;31.87;;
41514;SDS011;27247;48.020;16.720;2024-01-11T07:09:20;74.22;;;30.73;;
41514;SDS011;27247;48.020;16.720;2024-01-11T07:13:30;87.87;;;33.80;;
41514;SDS011;27247;48.020;16.720;2024-01-11T07:17:43;58.28;;;24.83;;
41514;SDS011;27247;48.020;16.720;2024-01-11T07:21:54;73.87;;;31.70;;
41514;SDS011;27247;48.020;16.720;2024-01-11T07:26:04;69.33;;;29.00;;
41514;SDS011;27247;48.020;16.720;2024-01-11T07:30:14;63.15;;;24.70;;
41514;SDS011;27247;48.020;16.720;2024-01-11T07:34:25;63.55;;;25.73;;
41514;SDS011;27247;48.020;16.720;2024-01-11T07:38:36;71.65;;;30.38;;
41514;SDS011;27247;48.020;16.720;2024-01-11T07:42:46;83.22;;;30.95;;
41514;SDS011;27247;48.020;16.720;2024-01-11T07:46:56;71.55;;;30.35;;
41514;SDS011;27247;48.020;16.720;2024-01-11T07:51:07;63.23;;;27.20;;
41514;SDS011;27247;48.020;16.720;2024-01-11T07:55:17;66.57;;;25.60;;
41514;SDS011;27247;48.020;16.720;2024-01-11T07:59:31;74.90;;;29.35;;
41514;SDS011;27247;48.020;16.720;2024-01-11T08:03:42;68.50;;;29.45;;
41514;SDS011;27247;48.020;16.720;2024-01-11T08:07:55;68.20;;;29.05;;
41514;SDS011;27247;48.020;16.720;2024-01-11T08:12:05;68.13;;;29.17;;
41514;SDS011;27247;48.020;16.720;2024-01-11T08:16:16;65.63;;;29.02;;
41514;SDS011;27247;48.020;16.720;2024-01-11T08:20:27;75.20;;;30.80;;
41514;SDS011;27247;48.020;16.720;2024-01-11T08:24:38;86.93;;;34.37;;
41514;SDS011;27247;48.020;16.720;2024-01-11T08:28:48;89.65;;;33.72;;
41514;SDS011;27247;48.020;16.720;2024-01-11T08:32:58;91.53;;;37.15;;
41514;SDS011;27247;48.020;16.720;2024-01-11T08:37:09;87.77;;;35.73;;
41514;SDS011;27247;48.020;16.720;2024-01-11T08:41:19;83.88;;;34.83;;
41514;SDS011;27247;48.020;16.720;2024-01-11T08:45:29;76.85;;;33.80;;
41514;SDS011;27247;48.020;16.720;2024-01-11T08:49:41;88.07;;;35.05;;
41514;SDS011;27247;48.020;16.720;2024-01-11T08:53:51;84.90;;;35.58;;
41514;SDS011;27247;48.020;16.720;2024-01-11T08:58:03;85.30;;;35.17;;
41514;SDS011;27247;48.020;16.720;2024-01-11T09:02:14;91.45;;;37.53;;
41514;SDS011;27247;48.020;16.720;2024-01-11T09:06:24;93.40;;;38.13;;
41514;SDS011;27247;48.020;16.720;2024-01-11T09:10:34;93.82;;;38.88;;
41514;SDS011;27247;48.020;16.720;2024-01-11T09:14:45;99.07;;;39.85;;
41514;SDS011;27247;48.020;16.720;2024-01-11T09:18:55;93.37;;;38.47;;
41514;SDS011;27247;48.020;16.720;2024-01-11T09:23:06;92.63;;;39.83;;
41514;SDS011;27247;48.020;16.720;2024-01-11T09:27:16;92.37;;;39.90;;
41514;SDS011;27247;48.020;16.720;2024-01-11T09:31:27;95.60;;;40.20;;
41514;SDS011;27247;48.020;16.720;2024-01-11T09:35:37;104.90;;;41.55;;
41514;SDS011;27247;48.020;16.720;2024-01-11T09:39:47;88.43;;;37.77;;
41514;SDS011;27247;48.020;16.720;2024-01-11T09:43:58;91.33;;;38.97;;
41514;SDS011;27247;48.020;16.720;2024-01-11T09:48:10;94.43;;;39.70;;
41514;SDS011;27247;48.020;16.720;2024-01-11T09:52:22;94.20;;;39.30;;
41514;SDS011;27247;48.020;16.720;2024-01-11T09:56:36;81.93;;;37.28;;
41514;SDS011;27247;48.020;16.720;2024-01-11T10:00:48;87.57;;;37.55;;
41514;SDS011;27247;48.020;16.720;2024-01-11T10:05:04;84.55;;;37.95;;
41514;SDS011;27247;48.020;16.720;2024-01-11T10:09:15;76.85;;;34.53;;
41514;SDS011;27247;48.020;16.720;2024-01-11T10:13:32;84.95;;;39.13;;
41514;SDS011;27247;48.020;16.720;2024-01-11T10:17:43;92.22;;;39.67;;
41514;SDS011;27247;48.020;16.720;2024-01-11T10:21:54;83.25;;;37.08;;
41514;SDS011;27247;48.020;16.720;2024-01-11T10:26:04;82.45;;;38.05;;
41514;SDS011;27247;48.020;16.720;2024-01-11T10:30:17;83.78;;;36.30;;
41514;SDS011;27247;48.020;16.720;2024-01-11T10:34:27;80.38;;;34.60;;
41514;SDS011;27247;48.020;16.720;2024-01-11T10:38:38;77.87;;;33.47;;
41514;SDS011;27247;48.020;16.720;2024-01-11T10:42:50;81.70;;;35.33;;
41514;SDS011;27247;48.020;16.720;2024-01-11T10:47:04;76.50;;;33.83;;
41514;SDS011;27247;48.020;16.720;2024-01-11T10:51:17;76.55;;;34.08;;
41514;SDS011;27247;48.020;16.720;2024-01-11T10:55:33;78.50;;;36.13;;
41514;SDS011;27247;48.020;16.720;2024-01-11T10:59:44;74.80;;;33.17;;
41514;SDS011;27247;48.020;16.720;2024-01-11T11:03:57;73.97;;;33.63;;
41514;SDS011;27247;48.020;16.720;2024-01-11T11:08:09;72.80;;;32.80;;
41514;SDS011;27247;48.020;16.720;2024-01-11T11:12:20;71.20;;;31.95;;
41514;SDS011;27247;48.020;16.720;2024-01-11T11:16:31;76.75;;;32.75;;
41514;SDS011;27247;48.020;16.720;2024-01-11T11:20:42;74.67;;;32.70;;
41514;SDS011;27247;48.020;16.720;2024-01-11T11:25:02;78.18;;;35.35;;
41514;SDS011;27247;48.020;16.720;2024-01-11T11:29:20;69.05;;;32.83;;
41514;SDS011;27247;48.020;16.720;2024-01-11T11:33:30;66.20;;;31.60;;
41514;SDS011;27247;48.020;16.720;2024-01-11T11:37:42;70.70;;;32.55;;
41514;SDS011;27247;48.020;16.720;2024-01-11T11:41:52;65.18;;;30.77;;
41514;SDS011;27247;48.020;16.720;2024-01-11T11:46:06;66.63;;;31.05;;
41514;SDS011;27247;48.020;16.720;2024-01-11T11:50:20;66.78;;;32.03;;
41514;SDS011;27247;48.020;16.720;2024-01-11T11:54:32;67.78;;;31.83;;
41514;SDS011;27247;48.020;16.720;2024-01-11T11:58:43;66.22;;;31.05;;
41514;SDS011;27247;48.020;16.720;2024-01-11T12:02:54;71.75;;;32.45;;
41514;SDS011;27247;48.020;16.720;2024-01-11T12:07:08;93.15;;;34.67;;
41514;SDS011;27247;48.020;16.720;2024-01-11T12:11:19;67.37;;;31.13;;
41514;SDS011;27247;48.020;16.720;2024-01-11T12:15:30;59.17;;;29.67;;
41514;SDS011;27247;48.020;16.720;2024-01-11T12:19:40;57.10;;;28.47;;
41514;SDS011;27247;48.020;16.720;2024-01-11T12:23:51;55.53;;;25.75;;
41514;SDS011;27247;48.020;16.720;2024-01-11T12:28:01;50.53;;;23.60;;
41514;SDS011;27247;48.020;16.720;2024-01-11T12:32:13;53.83;;;25.30;;
41514;SDS011;27247;48.020;16.720;2024-01-11T12:36:26;53.65;;;25.02;;
41514;SDS011;27247;48.020;16.720;2024-01-11T12:40:37;55.20;;;25.60;;
41514;SDS011;27247;48.020;16.720;2024-01-11T12:44:47;60.10;;;26.92;;
41514;SDS011;27247;48.020;16.720;2024-01-11T12:49:00;55.92;;;26.88;;
41514;SDS011;27247;48.020;16.720;2024-01-11T12:53:14;54.53;;;25.67;;
41514;SDS011;27247;48.020;16.720;2024-01-11T12:57:30;59.75;;;27.08;;
41514;SDS011;27247;48.020;16.720;2024-01-11T13:01:40;63.35;;;29.48;;
41514;SDS011;27247;48.020;16.720;2024-01-11T13:05:51;69.57;;;29.75;;
41514;SDS011;27247;48.020;16.720;2024-01-11T13:10:01;57.43;;;27.33;;
41514;SDS011;27247;48.020;16.720;2024-01-11T13:14:13;59.45;;;25.92;;
41514;SDS011;27247;48.020;16.720;2024-01-11T13:18:28;54.60;;;24.90;;
41514;SDS011;27247;48.020;16.720;2024-01-11T13:22:39;57.50;;;26.77;;
41514;SDS011;27247;48.020;16.720;2024-01-11T13:26:49;68.83;;;29.10;;
41514;SDS011;27247;48.020;16.720;2024-01-11T13:30:59;58.35;;;26.83;;
41514;SDS011;27247;48.020;16.720;2024-01-11T13:35:12;61.28;;;27.48;;
41514;SDS011;27247;48.020;16.720;2024-01-11T13:39:22;82.00;;;32.67;;
41514;SDS011;27247;48.020;16.720;2024-01-11T13:43:33;70.03;;;30.55;;
41514;SDS011;27247;48.020;16.720;2024-01-11T13:47:45;58.20;;;27.10;;
41514;SDS011;27247;48.020;16.720;2024-01-11T13:51:55;62.47;;;27.42;;
41514;SDS011;27247;48.020;16.720;2024-01-11T13:56:05;62.73;;;26.50;;
41514;SDS011;27247;48.020;16.720;2024-01-11T14:00:16;57.03;;;25.30;;
41514;SDS011;27247;48.020;16.720;2024-01-11T14:04:28;55.08;;;26.30;;
41514;SDS011;27247;48.020;16.720;2024-01-11T14:08:38;60.00;;;27.53;;
41514;SDS011;27247;48.020;16.720;2024-01-11T14:12:49;54.55;;;24.50;;
41514;SDS011;27247;48.020;16.720;2024-01-11T14:16:59;55.10;;;26.95;;
41514;SDS011;27247;48.020;16.720;2024-01-11T14:21:10;57.05;;;26.75;;
41514;SDS011;27247;48.020;16.720;2024-01-11T14:25:23;57.55;;;28.38;;
41514;SDS011;27247;48.020;16.720;2024-01-11T14:29:34;63.15;;;28.92;;
41514;SDS011;27247;48.020;16.720;2024-01-11T14:33:45;58.50;;;27.65;;
41514;SDS011;27247;48.020;16.720;2024-01-11T14:37:55;61.83;;;27.30;;
41514;SDS011;27247;48.020;16.720;2024-01-11T14:42:06;60.27;;;26.70;;
41514;SDS011;27247;48.020;16.720;2024-01-11T14:46:19;48.58;;;24.42;;
41514;SDS011;27247;48.020;16.720;2024-01-11T14:50:29;55.95;;;24.50;;
41514;SDS011;27247;48.020;16.720;2024-01-11T14:54:39;50.37;;;23.90;;
41514;SDS011;27247;48.020;16.720;2024-01-11T14:58:49;62.00;;;25.23;;
41514;SDS011;27247;48.020;16.720;2024-01-11T15:03:00;54.17;;;25.55;;
41514;SDS011;27247;48.020;16.720;2024-01-11T15:07:10;54.42;;;24.95;;
41514;SDS011;27247;48.020;16.720;2024-01-11T15:11:20;65.72;;;28.30;;
41514;SDS011;27247;48.020;16.720;2024-01-11T15:15:31;70.73;;;30.60;;
41514;SDS011;27247;48.020;16.720;2024-01-11T15:19:41;49.60;;;25.00;;
41514;SDS011;27247;48.020;16.720;2024-01-11T15:23:51;65.17;;;27.33;;
41514;SDS011;27247;48.020;16.720;2024-01-11T15:28:02;61.07;;;25.77;;
41514;SDS011;27247;48.020;16.720;2024-01-11T15:32:12;53.85;;;24.88;;
41514;SDS011;27247;48.020;16.720;2024-01-11T15:36:23;51.53;;;24.52;;
41514;SDS011;27247;48.020;16.720;2024-01-11T15:40:34;54.00;;;25.02;;
41514;SDS011;27247;48.020;16.720;2024-01-11T15:44:44;51.80;;;23.23;;
41514;SDS011;27247;48.020;16.720;2024-01-11T15:48:55;61.33;;;25.92;;
41514;SDS011;27247;48.020;16.720;2024-01-11T15:53:05;56.67;;;25.98;;
41514;SDS011;27247;48.020;16.720;2024-01-11T15:57:16;51.80;;;24.95;;
41514;SDS011;27247;48.020;16.720;2024-01-11T16:01:26;57.07;;;25.80;;
41514;SDS011;27247;48.020;16.720;2024-01-11T16:05:36;50.67;;;23.03;;
41514;SDS011;27247;48.020;16.720;2024-01-11T16:09:47;48.50;;;23.03;;
41514;SDS011;27247;48.020;16.720;2024-01-11T16:13:59;58.92;;;24.15;;
41514;SDS011;27247;48.020;16.720;2024-01-11T16:18:10;48.20;;;22.88;;
41514;SDS011;27247;48.020;16.720;2024-01-11T16:22:20;55.38;;;24.10;;
41514;SDS011;27247;48.020;16.720;2024-01-11T16:26:31;53.75;;;23.60;;
41514;SDS011;27247;48.020;16.720;2024-01-11T16:30:41;58.27;;;23.70;;
41514;SDS011;27247;48.020;16.720;2024-01-11T16:34:51;58.70;;;24.53;;
41514;SDS011;27247;48.020;16.720;2024-01-11T16:39:02;48.07;;;22.77;;
41514;SDS011;27247;48.020;16.720;2024-01-11T16:43:13;52.40;;;22.90;;
41514;SDS011;27247;48.020;16.720;2024-01-11T16:47:23;48.90;;;23.00;;
41514;SDS011;27247;48.020;16.720;2024-01-11T16:51:33;59.47;;;24.88;;
41514;SDS011;27247;48.020;16.720;2024-01-11T16:55:44;50.50;;;24.43;;
41514;SDS011;27247;48.020;16.720;2024-01-11T16:59:54;52.50;;;22.83;;
41514;SDS011;27247;48.020;16.720;2024-01-11T17:04:04;55.47;;;22.98;;
41514;SDS011;27247;48.020;16.720;2024-01-11T17:08:15;53.75;;;23.48;;
41514;SDS011;27247;48.020;16.720;2024-01-11T17:12:25;53.97;;;23.30;;
41514;SDS011;27247;48.020;16.720;2024-01-11T17:16:35;51.43;;;23.20;;
41514;SDS011;27247;48.020;16.720;2024-01-11T17:20:46;48.90;;;21.93;;
41514;SDS011;27247;48.020;16.720;2024-01-11T17:24:56;55.92;;;23.42;;
41514;SDS011;27247;48.020;16.720;2024-01-11T17:29:07;49.83;;;22.95;;
41514;SDS011;27247;48.020;16.720;2024-01-11T17:33:18;51.60;;;24.23;;
41514;SDS011;27247;48.020;16.720;2024-01-11T17:37:28;52.63;;;23.70;;
41514;SDS011;27247;48.020;16.720;2024-01-11T17:41:38;52.90;;;23.23;;
41514;SDS011;27247;48.020;16.720;2024-01-11T17:45:51;60.70;;;26.10;;
41514;SDS011;27247;48.020;16.720;2024-01-11T17:50:01;58.05;;;25.25;;
41514;SDS011;27247;48.020;16.720;2024-01-11T17:54:12;58.17;;;26.08;;
41514;SDS011;27247;48.020;16.720;2024-01-11T17:58:22;51.13;;;23.08;;
41514;SDS011;27247;48.020;16.720;2024-01-11T18:02:33;51.53;;;23.33;;
41514;SDS011;27247;48.020;16.720;2024-01-11T18:06:43;56.78;;;25.55;;
41514;SDS011;27247;48.020;16.720;2024-01-11T18:10:55;47.92;;;22.92;;
41514;SDS011;27247;48.020;16.720;2024-01-11T18:15:05;56.28;;;24.98;;
41514;SDS011;27247;48.020;16.720;2024-01-11T18:19:17;55.88;;;24.08;;
41514;SDS011;27247;48.020;16.720;2024-01-11T18:23:27;53.40;;;22.33;;
41514;SDS011;27247;48.020;16.720;2024-01-11T18:27:38;54.75;;;22.45;;
41514;SDS011;27247;48.020;16.720;2024-01-11T18:31:48;45.03;;;22.57;;
41514;SDS011;27247;48.020;16.720;2024-01-11T18:35:59;51.78;;;22.85;;
41514;SDS011;27247;48.020;16.720;2024-01-11T18:40:09;54.40;;;23.93;;
41514;SDS011;27247;48.020;16.720;2024-01-11T18:44:20;47.85;;;22.80;;
41514;SDS011;27247;48.020;16.720;2024-01-11T18:48:31;47.50;;;22.17;;
41514;SDS011;27247;48.020;16.720;2024-01-11T18:52:42;46.65;;;22.42;;
41514;SDS011;27247;48.020;16.720;2024-01-11T18:56:53;51.17;;;22.70;;
41514;SDS011;27247;48.020;16.720;2024-01-11T19:01:03;45.37;;;20.33;;
41514;SDS011;27247;48.020;16.720;2024-01-11T19:05:18;47.70;;;21.92;;
41514;SDS011;27247;48.020;16.720;2024-01-11T19:09:29;44.35;;;21.13;;
41514;SDS011;27247;48.020;16.720;2024-01-11T19:13:39;51.72;;;21.75;;
41514;SDS011;27247;48.020;16.720;2024-01-11T19:17:49;44.83;;;20.85;;
41514;SDS011;27247;48.020;16.720;2024-01-11T19:22:00;45.23;;;20.20;;
41514;SDS011;27247;48.020;16.720;2024-01-11T19:26:10;47.47;;;20.70;;
41514;SDS011;27247;48.020;16.720;2024-01-11T19:30:20;43.60;;;21.57;;
41514;SDS011;27247;48.020;16.720;2024-01-11T19:34:31;56.83;;;21.98;;
41514;SDS011;27247;48.020;16.720;2024-01-11T19:38:41;40.83;;;19.13;;
41514;SDS011;27247;48.020;16.720;2024-01-11T19:42:51;44.47;;;20.40;;
41514;SDS011;27247;48.020;16.720;2024-01-11T19:47:02;45.10;;;20.10;;
41514;SDS011;27247;48.020;16.720;2024-01-11T19:51:12;43.70;;;20.50;;
41514;SDS011;27247;48.020;16.720;2024-01-11T19:55:23;48.00;;;20.27;;
41514;SDS011;27247;48.020;16.720;2024-01-11T19:59:33;46.43;;;20.43;;
41514;SDS011;27247;48.020;16.720;2024-01-11T20:03:44;44.08;;;21.52;;
41514;SDS011;27247;48.020;16.720;2024-01-11T20:07:54;44.92;;;20.73;;
41514;SDS011;27247;48.020;16.720;2024-01-11T20:12:04;45.63;;;19.13;;
41514;SDS011;27247;48.020;16.720;2024-01-11T20:16:15;46.15;;;20.48;;
41514;SDS011;27247;48.020;16.720;2024-01-11T20:20:25;46.13;;;19.13;;
41514;SDS011;27247;48.020;16.720;2024-01-11T20:24:36;37.60;;;17.10;;
41514;SDS011;27247;48.020;16.720;2024-01-11T20:28:46;42.65;;;19.08;;
41514;SDS011;27247;48.020;16.720;2024-01-11T20:32:56;45.15;;;20.08;;
41514;SDS011;27247;48.020;16.720;2024-01-11T20:37:07;45.20;;;19.85;;
41514;SDS011;27247;48.020;16.720;2024-01-11T20:41:17;41.50;;;18.53;;
41514;SDS011;27247;48.020;16.720;2024-01-11T20:45:27;40.42;;;17.98;;
41514;SDS011;27247;48.020;16.720;2024-01-11T20:49:38;44.25;;;19.23;;
41514;SDS011;27247;48.020;16.720;2024-01-11T20:53:48;43.63;;;19.67;;
41514;SDS011;27247;48.020;16.720;2024-01-11T20:57:59;44.42;;;19.45;;
41514;SDS011;27247;48.020;16.720;2024-01-11T21:02:09;47.95;;;20.08;;
41514;SDS011;27247;48.020;16.720;2024-01-11T21:06:20;46.30;;;20.85;;
41514;SDS011;27247;48.020;16.720;2024-01-11T21:10:30;46.53;;;20.87;;
41514;SDS011;27247;48.020;16.720;2024-01-11T21:14:40;43.53;;;19.20;;
41514;SDS011;27247;48.020;16.720;2024-01-11T21:18:51;46.87;;;20.60;;
41514;SDS011;27247;48.020;16.720;2024-01-11T21:23:03;50.03;;;21.60;;
41514;SDS011;27247;48.020;16.720;2024-01-11T21:27:13;41.75;;;18.77;;
41514;SDS011;27247;48.020;16.720;2024-01-11T21:31:25;46.80;;;19.65;;
41514;SDS011;27247;48.020;16.720;2024-01-11T21:35:37;48.53;;;20.65;;
41514;SDS011;27247;48.020;16.720;2024-01-11T21:39:47;47.55;;;20.00;;
41514;SDS011;27247;48.020;16.720;2024-01-11T21:43:57;46.53;;;20.53;;
41514;SDS011;27247;48.020;16.720;2024-01-11T21:48:08;51.20;;;20.88;;
41514;SDS011;27247;48.020;16.720;2024-01-11T21:52:19;47.77;;;20.57;;
41514;SDS011;27247;48.020;16.720;2024-01-11T21:56:31;46.97;;;21.10;;
41514;SDS011;27247;48.020;16.720;2024-01-11T22:00:42;43.53;;;20.03;;
41514;SDS011;27247;48.020;16.720;2024-01-11T22:04:52;45.83;;;20.73;;
41514;SDS011;27247;48.020;16.720;2024-01-11T22:09:02;49.78;;;21.08;;
41514;SDS011;27247;48.020;16.720;2024-01-11T22:13:13;45.20;;;20.95;;
41514;SDS011;27247;48.020;16.720;2024-01-11T22:17:23;48.60;;;22.95;;
41514;SDS011;27247;48.020;16.720;2024-01-11T22:21:37;55.77;;;23.17;;
41514;SDS011;27247;48.020;16.720;2024-01-11T22:25:49;50.10;;;22.25;;
41514;SDS011;27247;48.020;16.720;2024-01-11T22:29:59;49.38;;;22.50;;
41514;SDS011;27247;48.020;16.720;2024-01-11T22:34:10;47.95;;;23.52;;
41514;SDS011;27247;48.020;16.720;2024-01-11T22:38:20;54.58;;;23.85;;
41514;SDS011;27247;48.020;16.720;2024-01-11T22:42:31;43.83;;;19.90;;
41514;SDS011;27247;48.020;16.720;2024-01-11T22:46:41;42.25;;;20.63;;
41514;SDS011;27247;48.020;16.720;2024-01-11T22:50:52;47.63;;;21.17;;
41514;SDS011;27247;48.020;16.720;2024-01-11T22:55:03;44.08;;;19.90;;
41514;SDS011;27247;48.020;16.720;2024-01-11T22:59:14;49.55;;;23.45;;
41514;SDS011;27247;48.020;16.720;2024-01-11T23:03:24;48.17;;;22.33;;
41514;SDS011;27247;48.020;16.720;2024-01-11T23:07:34;58.77;;;25.53;;
41514;SDS011;27247;48.020;16.720;2024-01-11T23:11:45;61.42;;;29.02;;
41514;SDS011;27247;48.020;16.720;2024-01-11T23:15:55;61.90;;;28.42;;
41514;SDS011;27247;48.020;16.720;2024-01-11T23:20:06;61.97;;;26.27;;
41514;SDS011;27247;48.020;16.720;2024-01-11T23:24:17;61.25;;;27.48;;
41514;SDS011;27247;48.020;16.720;2024-01-11T23:28:28;60.70;;;26.77;;
41514;SDS011;27247;48.020;16.720;2024-01-11T23:32:38;56.57;;;24.17;;
41514;SDS011;27247;48.020;16.720;2024-01-11T23:36:48;56.77;;;26.37;;
41514;SDS011;27247;48.020;16.720;2024-01-11T23:40:59;55.47;;;24.47;;
41514;SDS011;27247;48.020;16.720;2024-01-11T23:45:09;63.63;;;26.15;;
41514;SDS011;27247;48.020;16.720;2024-01-11T23:49:19;59.70;;;27.52;;
41514;SDS011;27247;48.020;16.720;2024-01-11T23:53:30;67.50;;;31.27;;
41514;SDS011;27247;48.020;16.720;2024-01-11T23:57:41;62.30;;;29.08;;
